createdAt,value
2023-04-03T00:01:04.688Z,69.83
2023-04-03T00:03:31.644Z,69.06
2023-04-03T00:05:58.697Z,68.95
2023-04-03T00:08:25.648Z,69.15
2023-04-03T00:10:52.560Z,69.33
2023-04-03T00:13:19.549Z,69.20
2023-04-03T00:15:46.491Z,69.06
2023-04-03T00:18:16.471Z,69.21
2023-04-03T00:20:43.288Z,69.30
2023-04-03T00:23:10.274Z,69.19
2023-04-03T00:25:37.519Z,69.91
2023-04-03T00:28:05.540Z,70.74
2023-04-03T00:30:32.839Z,70.13
2023-04-03T00:33:00.409Z,70.39
2023-04-03T00:35:27.649Z,69.58
2023-04-03T00:37:56.156Z,69.33
2023-04-03T00:40:27.592Z,69.38
2023-04-03T00:43:00.150Z,70.78
2023-04-03T00:45:35.832Z,70.42
2023-04-03T00:48:07.359Z,70.31
2023-04-03T00:50:38.937Z,70.13
2023-04-03T00:53:08.708Z,70.16
2023-04-03T00:55:37.472Z,70.72
2023-04-03T00:58:04.955Z,71.28
2023-04-03T01:00:31.927Z,71.12
2023-04-03T01:02:59.006Z,70.85
2023-04-03T01:05:26.285Z,71.19
2023-04-03T01:07:54.038Z,70.89
2023-04-03T01:10:21.821Z,71.67
2023-04-03T01:12:52.523Z,71.05
2023-04-03T01:15:27.302Z,71.15
2023-04-03T01:17:57.477Z,70.93
2023-04-03T01:20:33.884Z,70.93
2023-04-03T01:23:09.926Z,72.37
2023-04-03T01:25:44.020Z,71.61
2023-04-03T01:28:17.810Z,71.96
2023-04-03T01:31:26.708Z,71.90
2023-04-03T01:33:54.465Z,71.81
2023-04-03T01:36:30.677Z,71.56
2023-04-03T01:39:00.156Z,71.92
2023-04-03T01:41:27.823Z,71.16
2023-04-03T01:43:54.633Z,71.75
2023-04-03T01:46:22.818Z,71.89
2023-04-03T01:48:50.129Z,71.65
2023-04-03T01:51:17.087Z,69.69
2023-04-03T01:53:43.892Z,69.82
2023-04-03T01:56:10.810Z,69.73
2023-04-03T01:58:37.730Z,69.55
2023-04-03T02:01:04.827Z,69.28
2023-04-03T02:03:31.916Z,69.94
2023-04-03T02:05:59.206Z,69.81
2023-04-03T02:08:26.326Z,70.13
2023-04-03T02:10:53.250Z,69.54
2023-04-03T02:13:20.381Z,69.83
2023-04-03T02:15:48.648Z,69.28
2023-04-03T02:18:16.119Z,68.99
2023-04-03T02:20:43.029Z,69.38
2023-04-03T02:23:09.963Z,68.94
2023-04-03T02:25:38.607Z,69.21
2023-04-03T02:28:06.302Z,69.23
2023-04-03T02:30:33.167Z,68.92
2023-04-03T02:33:00.038Z,68.34
2023-04-03T02:35:27.081Z,68.11
2023-04-03T02:37:53.980Z,67.36
2023-04-03T02:40:20.838Z,67.34
2023-04-03T02:42:47.713Z,67.65
2023-04-03T02:45:14.608Z,67.49
2023-04-03T02:47:41.564Z,67.23
2023-04-03T02:50:08.993Z,67.34
2023-04-03T02:52:35.838Z,67.90
2023-04-03T02:55:02.670Z,67.05
2023-04-03T02:57:29.629Z,67.09
2023-04-03T02:59:56.512Z,66.89
2023-04-03T03:02:23.371Z,66.72
2023-04-03T03:04:50.521Z,67.03
2023-04-03T03:07:17.355Z,66.31
2023-04-03T03:09:44.150Z,66.67
2023-04-03T03:12:11.183Z,66.80
2023-04-03T03:14:37.992Z,65.82
2023-04-03T03:17:04.809Z,65.92
2023-04-03T03:19:31.643Z,65.94
2023-04-03T03:21:58.446Z,65.45
2023-04-03T03:24:25.441Z,65.37
2023-04-03T03:26:52.293Z,65.51
2023-04-03T03:29:19.094Z,65.14
2023-04-03T03:31:46.350Z,65.61
2023-04-03T03:34:13.873Z,65.22
2023-04-03T03:36:40.874Z,64.97
2023-04-03T03:39:07.752Z,64.87
2023-04-03T03:41:34.569Z,64.70
2023-04-03T03:44:01.477Z,64.76
2023-04-03T03:46:28.380Z,64.84
2023-04-03T03:48:55.427Z,64.68
2023-04-03T03:51:22.280Z,64.82
2023-04-03T03:53:49.322Z,64.66
2023-04-03T03:56:16.163Z,64.90
2023-04-03T03:58:43.087Z,63.97
2023-04-03T04:01:09.932Z,64.05
2023-04-03T04:03:36.909Z,64.05
2023-04-03T04:06:04.039Z,63.30
2023-04-03T04:08:31.170Z,63.07
2023-04-03T04:10:58.018Z,62.84
2023-04-03T04:13:25.190Z,63.13
2023-04-03T04:15:52.011Z,62.00
2023-04-03T04:18:21.088Z,61.67
2023-04-03T04:20:47.974Z,61.74
2023-04-03T04:23:14.876Z,62.06
2023-04-03T04:25:41.937Z,62.03
2023-04-03T04:28:08.868Z,61.19
2023-04-03T04:30:35.753Z,61.33
2023-04-03T04:33:02.641Z,61.62
2023-04-03T04:35:29.603Z,61.79
2023-04-03T04:37:56.583Z,61.84
2023-04-03T04:40:23.732Z,61.39
2023-04-03T04:42:50.626Z,61.43
2023-04-03T04:45:17.898Z,60.90
2023-04-03T04:47:45.234Z,60.42
2023-04-03T04:50:12.685Z,60.28
2023-04-03T04:52:39.762Z,60.62
2023-04-03T04:55:07.035Z,60.43
2023-04-03T04:57:33.964Z,59.82
2023-04-03T05:00:00.985Z,59.31
2023-04-03T05:02:28.445Z,59.98
2023-04-03T05:04:55.289Z,59.75
2023-04-03T05:07:23.559Z,59.78
2023-04-03T05:09:50.405Z,59.69
2023-04-03T05:12:17.961Z,59.58
2023-04-03T05:14:44.780Z,59.75
2023-04-03T05:17:11.589Z,59.24
2023-04-03T05:19:38.403Z,59.38
2023-04-03T05:22:05.223Z,59.34
2023-04-03T05:24:32.026Z,59.46
2023-04-03T05:26:58.879Z,59.22
2023-04-03T05:29:25.683Z,60.20
2023-04-03T05:31:52.614Z,59.15
2023-04-03T05:34:19.544Z,59.48
2023-04-03T05:36:46.477Z,59.76
2023-04-03T05:39:13.780Z,60.00
2023-04-03T05:41:40.774Z,59.84
2023-04-03T05:44:07.783Z,60.18
2023-04-03T05:46:34.586Z,59.40
2023-04-03T05:49:01.390Z,59.06
2023-04-03T05:51:37.860Z,59.33
2023-04-03T05:54:34.776Z,59.34
2023-04-03T05:57:01.752Z,59.32
2023-04-03T05:59:28.613Z,59.75
2023-04-03T06:01:55.784Z,59.47
2023-04-03T06:04:22.776Z,59.67
2023-04-03T06:06:58.581Z,59.85
2023-04-03T06:09:29.877Z,59.29
2023-04-03T06:11:59.375Z,59.37
2023-04-03T06:14:26.876Z,59.44
2023-04-03T06:16:55.301Z,59.45
2023-04-03T06:19:22.767Z,59.63
2023-04-03T06:21:49.627Z,59.48
2023-04-03T06:24:17.860Z,59.74
2023-04-03T06:26:45.288Z,59.83
2023-04-03T06:29:12.155Z,59.85
2023-04-03T06:31:39.054Z,59.13
2023-04-03T06:34:09.528Z,59.94
2023-04-03T06:36:36.674Z,60.14
2023-04-03T06:39:04.298Z,59.62
2023-04-03T06:41:31.425Z,59.97
2023-04-03T06:43:59.028Z,60.44
2023-04-03T06:46:27.947Z,60.20
2023-04-03T06:48:54.995Z,60.22
2023-04-03T06:51:28.694Z,60.21
2023-04-03T06:53:57.990Z,60.31
2023-04-03T06:56:26.220Z,60.40
2023-04-03T06:58:55.721Z,60.48
2023-04-03T07:01:22.725Z,60.32
2023-04-03T07:03:50.203Z,60.35
2023-04-03T07:06:18.858Z,60.72
2023-04-03T07:08:47.432Z,61.13
2023-04-03T07:11:14.343Z,60.84
2023-04-03T07:13:41.480Z,61.10
2023-04-03T07:16:09.624Z,61.06
2023-04-03T07:18:36.952Z,60.74
2023-04-03T07:21:05.044Z,61.26
2023-04-03T07:23:32.056Z,61.10
2023-04-03T07:25:58.869Z,61.29
2023-04-03T07:28:26.851Z,60.68
2023-04-03T07:31:04.941Z,61.05
2023-04-03T07:33:33.033Z,61.51
2023-04-03T07:36:00.008Z,61.21
2023-04-03T07:38:26.988Z,61.42
2023-04-03T07:40:54.088Z,62.19
2023-04-03T07:43:23.344Z,62.27
2023-04-03T07:45:51.830Z,62.22
2023-04-03T07:48:21.505Z,62.14
2023-04-03T07:50:48.352Z,62.30
2023-04-03T07:53:16.228Z,62.02
2023-04-03T07:55:45.655Z,62.69
2023-04-03T07:58:16.551Z,63.01
2023-04-03T08:00:43.724Z,62.53
2023-04-03T08:03:12.902Z,62.13
2023-04-03T08:05:45.900Z,62.68
2023-04-03T08:08:19.182Z,62.98
2023-04-03T08:10:55.123Z,62.13
2023-04-03T08:13:23.209Z,62.17
2023-04-03T08:15:50.406Z,62.58
2023-04-03T08:18:17.876Z,62.39
2023-04-03T08:20:45.886Z,62.56
2023-04-03T08:23:12.812Z,62.80
2023-04-03T08:25:41.898Z,61.82
2023-04-03T08:28:10.177Z,62.23
2023-04-03T08:30:37.258Z,62.25
2023-04-03T08:33:04.906Z,61.88
2023-04-03T08:35:31.817Z,62.66
2023-04-03T08:37:58.933Z,61.87
2023-04-03T08:40:26.065Z,61.82
2023-04-03T08:43:40.379Z,61.63
2023-04-03T08:46:13.498Z,62.35
2023-04-03T08:48:44.485Z,61.81
2023-04-03T08:51:21.495Z,61.90
2023-04-03T08:53:58.352Z,61.38
2023-04-03T08:56:26.613Z,62.28
2023-04-03T08:58:59.212Z,62.12
2023-04-03T09:01:40.462Z,61.46
2023-04-03T09:04:18.114Z,61.23
2023-04-03T09:06:52.796Z,60.86
2023-04-03T09:09:33.468Z,60.66
2023-04-03T09:12:22.440Z,60.07
2023-04-03T09:15:20.016Z,58.13
2023-04-03T09:18:23.494Z,56.99
2023-04-03T09:21:18.439Z,57.99
2023-04-03T09:23:54.694Z,57.58
2023-04-03T09:26:41.599Z,58.34
2023-04-03T09:29:09.429Z,55.86
2023-04-03T09:31:45.083Z,55.99
2023-04-03T09:34:36.432Z,56.85
2023-04-03T09:37:07.089Z,56.87
2023-04-03T09:39:52.150Z,55.30
2023-04-03T09:42:24.726Z,54.97
2023-04-03T09:44:58.438Z,53.56
2023-04-03T09:47:29.083Z,53.98
2023-04-03T09:50:14.101Z,52.14
2023-04-03T09:52:52.579Z,51.32
2023-04-03T09:55:30.439Z,52.18
2023-04-03T09:58:24.469Z,51.93
2023-04-03T10:01:00.299Z,52.37
2023-04-03T10:03:35.722Z,52.74
2023-04-03T10:06:05.652Z,52.68
2023-04-03T10:08:36.142Z,52.60
2023-04-03T10:11:19.649Z,53.29
2023-04-03T10:14:01.799Z,53.75
2023-04-03T10:16:40.335Z,53.24
2023-04-03T10:19:23.551Z,52.55
2023-04-03T10:22:23.782Z,52.29
2023-04-03T10:25:04.722Z,51.62
2023-04-03T10:28:07.916Z,52.69
2023-04-03T10:31:07.651Z,52.17
2023-04-03T10:33:52.587Z,52.93
2023-04-03T10:36:51.123Z,53.33
2023-04-03T10:39:30.665Z,53.41
2023-04-03T10:42:26.359Z,53.46
2023-04-03T10:45:22.271Z,52.24
2023-04-03T10:48:05.720Z,52.90
2023-04-03T10:50:59.873Z,52.84
2023-04-03T10:53:55.783Z,51.73
2023-04-03T10:56:41.253Z,52.13
2023-04-03T10:59:34.461Z,52.59
2023-04-03T11:02:19.928Z,51.85
2023-04-03T11:04:53.189Z,51.68
2023-04-03T11:07:24.291Z,52.47
2023-04-03T11:09:57.586Z,51.58
2023-04-03T11:12:54.191Z,51.78
2023-04-03T11:15:24.178Z,51.52
2023-04-03T11:18:05.380Z,51.68
2023-04-03T11:20:35.176Z,49.37
2023-04-03T11:23:05.542Z,50.37
2023-04-03T11:25:37.932Z,51.06
2023-04-03T11:28:10.840Z,51.19
2023-04-03T11:31:00.302Z,51.49
2023-04-03T11:33:30.005Z,51.01
2023-04-03T11:36:05.444Z,50.89
2023-04-03T11:38:42.329Z,48.22
2023-04-03T11:41:11.548Z,49.35
2023-04-03T11:43:58.891Z,49.78
2023-04-03T11:46:56.468Z,48.92
2023-04-03T11:50:03.818Z,48.07
2023-04-03T11:52:42.230Z,49.29
2023-04-03T11:55:22.976Z,48.82
2023-04-03T11:57:58.564Z,49.12
2023-04-03T12:00:56.877Z,47.39
2023-04-03T12:03:26.832Z,46.12
2023-04-03T12:06:17.693Z,48.36
2023-04-03T12:08:47.947Z,47.54
2023-04-03T12:11:17.490Z,48.65
2023-04-03T12:13:50.396Z,46.31
2023-04-03T12:16:31.316Z,47.31
2023-04-03T12:19:03.187Z,48.60
2023-04-03T12:21:45.890Z,48.99
2023-04-03T12:24:18.538Z,48.43
2023-04-03T12:26:56.919Z,47.68
2023-04-03T12:29:29.755Z,46.59
2023-04-03T12:32:25.728Z,46.53
2023-04-03T12:35:08.461Z,45.85
2023-04-03T12:38:06.804Z,45.21
2023-04-03T12:40:42.531Z,46.07
2023-04-03T12:43:45.047Z,47.57
2023-04-03T12:46:24.691Z,46.70
2023-04-03T12:49:01.279Z,47.27
2023-04-03T12:51:42.104Z,46.02
2023-04-03T12:54:21.328Z,46.66
2023-04-03T12:56:48.492Z,47.70
2023-04-03T12:59:23.302Z,47.57
2023-04-03T13:02:01.923Z,46.76
2023-04-03T13:04:31.692Z,44.73
2023-04-03T13:06:59.219Z,46.56
2023-04-03T13:09:31.757Z,44.83
2023-04-03T13:12:03.324Z,44.83
2023-04-03T13:14:30.452Z,45.71
2023-04-03T13:17:14.330Z,46.64
2023-04-03T13:19:42.979Z,46.08
2023-04-03T13:22:35.078Z,45.69
2023-04-03T13:25:08.857Z,44.29
2023-04-03T13:27:36.157Z,45.28
2023-04-03T13:30:06.149Z,44.62
2023-04-03T13:32:33.485Z,44.53
2023-04-03T13:35:15.472Z,46.24
2023-04-03T13:38:01.128Z,46.18
2023-04-03T13:40:32.413Z,46.11
2023-04-03T13:43:28.455Z,45.94
2023-04-03T13:46:15.548Z,45.83
2023-04-03T13:48:49.248Z,46.09
2023-04-03T13:51:16.030Z,46.10
2023-04-03T13:54:00.437Z,45.73
2023-04-03T13:56:43.036Z,46.54
2023-04-03T13:59:12.810Z,46.01
2023-04-03T14:01:46.713Z,46.41
2023-04-03T14:04:27.021Z,45.35
2023-04-03T14:06:54.431Z,46.01
2023-04-03T14:09:23.590Z,45.48
2023-04-03T14:11:55.514Z,43.66
2023-04-03T14:14:29.342Z,43.32
2023-04-03T14:17:01.397Z,42.98
2023-04-03T14:19:34.963Z,42.42
2023-04-03T14:22:24.941Z,44.04
2023-04-03T14:24:52.827Z,43.44
2023-04-03T14:27:35.354Z,44.56
2023-04-03T14:30:04.593Z,43.21
2023-04-03T14:32:31.490Z,44.38
2023-04-03T14:34:59.286Z,44.26
2023-04-03T14:37:30.278Z,42.15
2023-04-03T14:40:00.024Z,42.90
2023-04-03T14:42:34.383Z,44.89
2023-04-03T14:45:08.104Z,43.61
2023-04-03T14:47:46.449Z,43.81
2023-04-03T14:50:22.028Z,43.27
2023-04-03T14:52:52.342Z,44.20
2023-04-03T14:55:23.427Z,44.72
2023-04-03T14:57:50.380Z,43.32
2023-04-03T15:00:20.755Z,42.58
2023-04-03T15:02:48.912Z,43.11
2023-04-03T15:05:16.949Z,44.59
2023-04-03T15:07:50.027Z,45.37
2023-04-03T15:10:32.806Z,45.08
2023-04-03T15:12:59.676Z,43.75
2023-04-03T15:15:31.126Z,44.11
2023-04-03T15:17:58.996Z,44.25
2023-04-03T15:20:28.564Z,43.94
2023-04-03T15:22:57.407Z,45.02
2023-04-03T15:25:26.040Z,43.44
2023-04-03T15:27:57.914Z,43.41
2023-04-03T15:30:24.734Z,42.93
2023-04-03T15:32:51.976Z,42.51
2023-04-03T15:35:19.130Z,43.61
2023-04-03T15:37:45.944Z,43.22
2023-04-03T15:40:13.929Z,43.10
2023-04-03T15:42:41.352Z,44.18
2023-04-03T15:45:09.381Z,43.23
2023-04-03T15:47:36.416Z,42.86
2023-04-03T15:50:06.926Z,44.48
2023-04-03T15:52:33.877Z,43.00
2023-04-03T15:55:00.845Z,43.73
2023-04-03T15:57:27.910Z,44.19
2023-04-03T15:59:55.156Z,43.58
2023-04-03T16:02:22.427Z,42.83
2023-04-03T16:04:49.901Z,41.60
2023-04-03T16:07:16.834Z,42.50
2023-04-03T16:09:43.765Z,40.37
2023-04-03T16:12:10.868Z,41.28
2023-04-03T16:14:37.720Z,42.30
2023-04-03T16:17:04.609Z,41.88
2023-04-03T16:19:31.473Z,41.95
2023-04-03T16:21:58.542Z,43.21
2023-04-03T16:24:25.528Z,44.22
2023-04-03T16:26:54.269Z,43.10
2023-04-03T16:29:21.132Z,43.40
2023-04-03T16:31:48.224Z,43.35
2023-04-03T16:34:15.173Z,42.58
2023-04-03T16:36:42.166Z,41.38
2023-04-03T16:39:10.834Z,42.15
2023-04-03T16:41:37.678Z,42.73
2023-04-03T16:44:04.667Z,43.19
2023-04-03T16:46:31.515Z,41.66
2023-04-03T16:48:58.319Z,41.69
2023-04-03T16:51:25.642Z,41.04
2023-04-03T16:53:52.473Z,40.94
2023-04-03T16:56:19.558Z,40.71
2023-04-03T16:58:46.743Z,41.79
2023-04-03T17:01:17.662Z,39.31
2023-04-03T17:03:45.446Z,40.49
2023-04-03T17:06:17.377Z,41.29
2023-04-03T17:08:46.741Z,40.73
2023-04-03T17:11:13.926Z,39.73
2023-04-03T17:13:40.893Z,40.17
2023-04-03T17:16:12.522Z,41.18
2023-04-03T17:18:39.907Z,40.69
2023-04-03T17:21:07.271Z,40.56
2023-04-03T17:23:36.614Z,40.80
2023-04-03T17:26:04.863Z,40.81
2023-04-03T17:28:32.300Z,41.19
2023-04-03T17:31:01.529Z,40.70
2023-04-03T17:33:31.094Z,40.77
2023-04-03T17:36:01.360Z,40.77
2023-04-03T17:38:28.873Z,40.80
2023-04-03T17:41:00.415Z,41.49
2023-04-03T17:43:27.946Z,41.56
2023-04-03T17:46:03.596Z,41.08
2023-04-03T17:48:34.539Z,41.69
2023-04-03T17:51:11.091Z,41.60
2023-04-03T17:53:38.335Z,41.07
2023-04-03T17:56:10.855Z,40.85
2023-04-03T17:58:37.712Z,42.25
2023-04-03T18:01:13.936Z,42.57
2023-04-03T18:03:41.852Z,41.82
2023-04-03T18:06:16.383Z,42.27
2023-04-03T18:08:55.931Z,42.32
2023-04-03T18:11:27.626Z,41.23
2023-04-03T18:13:58.522Z,41.81
2023-04-03T18:16:26.130Z,43.33
2023-04-03T18:19:06.669Z,42.95
2023-04-03T18:21:40.260Z,42.52
2023-04-03T18:24:16.971Z,42.07
2023-04-03T18:26:46.566Z,43.12
2023-04-03T18:29:14.329Z,42.52
2023-04-03T18:31:45.380Z,43.01
2023-04-03T18:34:12.728Z,43.21
2023-04-03T18:36:40.958Z,43.56
2023-04-03T18:39:08.095Z,43.25
2023-04-03T18:41:37.232Z,43.07
2023-04-03T18:44:07.503Z,42.56
2023-04-03T18:46:34.701Z,43.08
2023-04-03T18:49:01.764Z,44.12
2023-04-03T18:51:28.676Z,43.32
2023-04-03T18:53:55.866Z,43.16
2023-04-03T18:56:23.024Z,43.20
2023-04-03T18:58:49.859Z,43.63
2023-04-03T19:01:17.210Z,43.78
2023-04-03T19:03:44.859Z,43.71
2023-04-03T19:06:12.215Z,43.46
2023-04-03T19:08:39.592Z,43.38
2023-04-03T19:11:07.115Z,43.62
2023-04-03T19:13:34.394Z,43.73
2023-04-03T19:16:01.802Z,43.93
2023-04-03T19:18:29.383Z,43.50
2023-04-03T19:20:57.403Z,43.93
2023-04-03T19:23:25.451Z,43.81
2023-04-03T19:26:00.082Z,43.44
2023-04-03T19:28:27.496Z,44.18
2023-04-03T19:30:54.433Z,43.67
2023-04-03T19:33:21.365Z,43.15
2023-04-03T19:35:48.209Z,43.96
2023-04-03T19:38:15.070Z,44.13
2023-04-03T19:40:43.827Z,43.57
2023-04-03T19:43:13.296Z,43.85
2023-04-03T19:45:41.752Z,43.14
2023-04-03T19:48:08.873Z,43.61
2023-04-03T19:50:36.341Z,43.47
2023-04-03T19:53:03.331Z,43.90
2023-04-03T19:55:31.310Z,44.14
2023-04-03T19:58:02.338Z,43.87
2023-04-03T20:00:31.186Z,43.94
2023-04-03T20:02:58.453Z,44.01
2023-04-03T20:05:25.597Z,43.86
2023-04-03T20:07:52.605Z,44.05
2023-04-03T20:10:19.904Z,43.78
2023-04-03T20:12:46.798Z,43.66
2023-04-03T20:15:14.173Z,43.75
2023-04-03T20:17:41.273Z,43.49
2023-04-03T20:20:08.801Z,43.04
2023-04-03T20:22:38.234Z,42.96
2023-04-03T20:25:08.093Z,43.04
2023-04-03T20:27:35.165Z,43.20
2023-04-03T20:30:04.763Z,43.35
2023-04-03T20:32:31.851Z,44.15
2023-04-03T20:35:04.353Z,43.17
2023-04-03T20:37:32.371Z,43.87
2023-04-03T20:39:59.186Z,43.63
2023-04-03T20:42:26.221Z,43.13
2023-04-03T20:44:53.114Z,43.53
2023-04-03T20:47:20.085Z,43.56
2023-04-03T20:49:46.989Z,43.92
2023-04-03T20:52:13.818Z,43.27
2023-04-03T20:54:41.255Z,43.28
2023-04-03T20:57:08.086Z,43.84
2023-04-03T20:59:35.804Z,43.80
2023-04-03T21:02:02.706Z,43.58
2023-04-03T21:04:52.973Z,44.07
2023-04-03T21:08:16.329Z,43.67
2023-04-03T21:11:40.054Z,43.95
2023-04-03T21:15:04.321Z,44.17
2023-04-03T21:17:31.041Z,44.23
2023-04-03T21:19:57.903Z,44.26
2023-04-03T21:22:24.691Z,44.04
2023-04-03T21:24:51.522Z,44.16
2023-04-03T21:27:18.342Z,44.34
2023-04-03T21:29:45.442Z,44.72
2023-04-03T21:32:12.260Z,44.35
2023-04-03T21:34:39.136Z,44.15
2023-04-03T21:37:09.388Z,44.89
2023-04-03T21:39:36.632Z,44.71
2023-04-03T21:42:03.805Z,44.40
2023-04-03T21:44:30.871Z,44.30
2023-04-03T21:46:57.944Z,44.54
2023-04-03T21:49:25.767Z,44.91
2023-04-03T21:51:52.777Z,44.85
2023-04-03T21:54:20.440Z,44.80
2023-04-03T21:56:48.272Z,44.82
2023-04-03T21:59:15.807Z,44.90
2023-04-03T22:01:43.225Z,45.27
2023-04-03T22:04:10.714Z,44.84
2023-04-03T22:06:38.141Z,44.83
2023-04-03T22:09:05.365Z,45.17
2023-04-03T22:11:32.612Z,45.73
2023-04-03T22:14:00.190Z,45.32
2023-04-03T22:16:27.457Z,45.29
2023-04-03T22:18:54.914Z,45.48
2023-04-03T22:21:22.382Z,45.48
2023-04-03T22:23:49.522Z,45.77
2023-04-03T22:26:16.607Z,45.00
2023-04-03T22:28:46.408Z,45.77
2023-04-03T22:31:14.852Z,45.65
2023-04-03T22:33:43.194Z,45.83
2023-04-03T22:36:12.982Z,45.73
2023-04-03T22:38:44.244Z,46.00
2023-04-03T22:41:11.864Z,45.75
2023-04-03T22:43:39.674Z,46.12
2023-04-03T22:46:09.142Z,46.79
2023-04-03T22:48:37.194Z,46.54
2023-04-03T22:51:07.629Z,46.62
2023-04-03T22:53:35.998Z,46.49
2023-04-03T22:56:08.309Z,46.95
2023-04-03T22:58:35.164Z,46.84
2023-04-03T23:01:08.767Z,46.80
2023-04-03T23:03:37.031Z,47.14
2023-04-03T23:06:05.669Z,46.83
2023-04-03T23:08:34.486Z,46.88
2023-04-03T23:11:02.233Z,47.23
2023-04-03T23:13:29.395Z,47.29
2023-04-03T23:16:00.812Z,47.23
2023-04-03T23:18:29.822Z,47.70
2023-04-03T23:20:58.936Z,47.25
2023-04-03T23:23:25.869Z,47.43
2023-04-03T23:25:58.977Z,47.51
2023-04-03T23:28:27.670Z,48.08
2023-04-03T23:31:03.918Z,47.66
2023-04-03T23:33:32.180Z,48.33
2023-04-03T23:36:01.261Z,47.90
2023-04-03T23:38:28.232Z,47.61
2023-04-03T23:40:55.111Z,47.73
2023-04-03T23:43:21.903Z,47.89
2023-04-03T23:45:48.765Z,48.05
2023-04-03T23:48:15.760Z,47.59
2023-04-03T23:50:43.829Z,47.56
2023-04-03T23:53:12.875Z,47.91
2023-04-03T23:55:39.809Z,47.63
2023-04-03T23:58:06.706Z,47.32
